Time;durP1;ratioP1;P1;durP2;ratioP2;P2;SDS_P1;SDS_P2;PMS_P1;PMS_P2;Temp;Humidity;BMP_temperature;BMP_pressure;BME280_temperature;BME280_humidity;BME280_pressure;Samples;Min_cycle;Max_cycle;Signal;HPM_P1;HPM_P2
2024/01/31 00:00:06;;;;;;;36.97;24.00;;;;;;;;;;5037076;28;20422;-79
2024/01/31 00:02:32;;;;;;;26.63;20.58;;;;;;;;;;5036658;28;20379;-79
2024/01/31 00:04:58;;;;;;;28.25;21.40;;;;;;;;;;5036679;28;20429;-78
2024/01/31 00:07:24;;;;;;;28.70;20.37;;;;;;;;;;5036789;28;20429;-79
2024/01/31 00:09:50;;;;;;;25.98;20.52;;;;;;;;;;5037000;28;20410;-79
2024/01/31 00:12:16;;;;;;;28.10;20.80;;;;;;;;;;5036870;28;20378;-79
2024/01/31 00:14:45;;;;;;;25.73;20.75;;;;;;;;;;5036593;28;20386;-79
2024/01/31 00:17:11;;;;;;;24.03;19.97;;;;;;;;;;5036754;28;20379;-78
2024/01/31 00:19:37;;;;;;;27.00;21.02;;;;;;;;;;5036222;28;20387;-79
2024/01/31 00:22:03;;;;;;;27.95;21.42;;;;;;;;;;5036650;28;20387;-78
2024/01/31 00:24:29;;;;;;;28.05;21.35;;;;;;;;;;5036357;28;20382;-79
2024/01/31 00:26:55;;;;;;;27.15;20.63;;;;;;;;;;5033990;28;20498;-79
2024/01/31 00:29:21;;;;;;;25.85;20.50;;;;;;;;;;5018494;28;20380;-79
2024/01/31 00:31:47;;;;;;;31.85;24.00;;;;;;;;;;5035855;28;20391;-79
2024/01/31 00:34:13;;;;;;;54.90;34.10;;;;;;;;;;5036142;28;20445;-79
2024/01/31 00:36:42;;;;;;;54.45;33.40;;;;;;;;;;5036381;28;20443;-79
2024/01/31 00:39:10;;;;;;;46.08;27.60;;;;;;;;;;5035894;28;20860;-79
2024/01/31 00:41:36;;;;;;;51.72;31.58;;;;;;;;;;5036410;28;20437;-79
2024/01/31 00:44:02;;;;;;;45.92;28.85;;;;;;;;;;5036513;28;20379;-79
2024/01/31 00:46:28;;;;;;;30.08;21.48;;;;;;;;;;5036651;28;20421;-79
2024/01/31 00:48:55;;;;;;;35.20;24.02;;;;;;;;;;5035792;28;20382;-79
2024/01/31 00:51:21;;;;;;;33.20;23.23;;;;;;;;;;5036022;28;20399;-78
2024/01/31 00:53:47;;;;;;;31.15;22.27;;;;;;;;;;5035786;28;20590;-78
2024/01/31 00:56:13;;;;;;;29.80;21.15;;;;;;;;;;5017813;28;20387;-78
2024/01/31 00:58:39;;;;;;;29.63;20.42;;;;;;;;;;5035845;28;20469;-78
2024/01/31 01:01:05;;;;;;;27.73;20.92;;;;;;;;;;5036154;28;20391;-78
2024/01/31 01:03:31;;;;;;;25.93;19.17;;;;;;;;;;5035302;28;20414;-78
2024/01/31 01:05:57;;;;;;;25.08;18.33;;;;;;;;;;5035615;28;20918;-78
2024/01/31 01:08:23;;;;;;;24.27;17.73;;;;;;;;;;5035995;28;20378;-78
2024/01/31 01:10:49;;;;;;;22.23;17.30;;;;;;;;;;5035416;28;20796;-78
2024/01/31 01:13:15;;;;;;;23.17;18.35;;;;;;;;;;5035797;28;20873;-78
2024/01/31 01:15:41;;;;;;;23.13;18.13;;;;;;;;;;5035831;28;20387;-78
2024/01/31 01:18:07;;;;;;;23.45;17.73;;;;;;;;;;5035530;28;20446;-78
2024/01/31 01:20:33;;;;;;;21.48;17.17;;;;;;;;;;5035908;28;20379;-78
2024/01/31 01:22:59;;;;;;;23.30;17.15;;;;;;;;;;5036077;28;20872;-79
2024/01/31 01:25:25;;;;;;;19.13;16.40;;;;;;;;;;5035507;28;20504;-79
2024/01/31 01:27:51;;;;;;;19.00;15.98;;;;;;;;;;5035920;28;20387;-78
2024/01/31 01:30:20;;;;;;;22.17;17.30;;;;;;;;;;5035319;28;20386;-79
2024/01/31 01:32:46;;;;;;;22.00;17.25;;;;;;;;;;5035394;28;20387;-79
2024/01/31 01:35:13;;;;;;;20.00;16.00;;;;;;;;;;5035166;28;20741;-79
2024/01/31 01:37:39;;;;;;;20.02;16.05;;;;;;;;;;5035458;28;20901;-79
2024/01/31 01:40:06;;;;;;;18.93;16.20;;;;;;;;;;5034848;28;20869;-78
2024/01/31 01:42:32;;;;;;;21.17;17.08;;;;;;;;;;5034984;28;20445;-78
2024/01/31 01:44:58;;;;;;;19.65;16.30;;;;;;;;;;5034471;28;20390;-79
2024/01/31 01:47:24;;;;;;;19.38;16.70;;;;;;;;;;5035617;28;20410;-79
2024/01/31 01:49:50;;;;;;;20.92;16.20;;;;;;;;;;5035324;28;20387;-78
2024/01/31 01:52:16;;;;;;;18.42;15.73;;;;;;;;;;5035429;28;20892;-78
2024/01/31 01:54:43;;;;;;;17.17;15.18;;;;;;;;;;5035310;28;20383;-78
2024/01/31 01:57:09;;;;;;;18.90;15.60;;;;;;;;;;5035341;28;20382;-78
2024/01/31 01:59:36;;;;;;;18.35;15.23;;;;;;;;;;5035373;28;20379;-79
2024/01/31 02:02:02;;;;;;;18.98;15.45;;;;;;;;;;5034753;28;20394;-78
2024/01/31 02:04:29;;;;;;;16.50;14.80;;;;;;;;;;5034651;28;20920;-79
2024/01/31 02:06:56;;;;;;;16.83;15.02;;;;;;;;;;5034995;28;20411;-79
2024/01/31 02:09:22;;;;;;;18.77;14.65;;;;;;;;;;5034731;28;20422;-79
2024/01/31 02:11:48;;;;;;;17.52;14.57;;;;;;;;;;5035261;28;20387;-79
2024/01/31 02:14:14;;;;;;;18.98;15.57;;;;;;;;;;5035391;28;20386;-78
2024/01/31 02:16:40;;;;;;;19.73;15.75;;;;;;;;;;5034954;28;20410;-79
2024/01/31 02:19:05;;;;;;;17.60;14.93;;;;;;;;;;5034930;28;20479;-79
2024/01/31 02:21:33;;;;;;;18.95;15.27;;;;;;;;;;5034667;28;20787;-78
2024/01/31 02:23:59;;;;;;;17.93;15.60;;;;;;;;;;5034459;28;20390;-79
2024/01/31 02:26:25;;;;;;;19.60;15.80;;;;;;;;;;5034924;28;20415;-78
2024/01/31 02:28:51;;;;;;;17.52;14.25;;;;;;;;;;5035146;28;20845;-78
2024/01/31 02:31:17;;;;;;;15.65;13.95;;;;;;;;;;5035163;28;20410;-79
2024/01/31 02:33:43;;;;;;;17.73;14.43;;;;;;;;;;5035053;28;20381;-79
2024/01/31 02:36:09;;;;;;;17.80;14.45;;;;;;;;;;5035600;28;20411;-78
2024/01/31 02:38:35;;;;;;;16.08;14.35;;;;;;;;;;5034232;28;20391;-79
2024/01/31 02:41:01;;;;;;;16.07;14.37;;;;;;;;;;5035009;28;20467;-78
2024/01/31 02:43:27;;;;;;;17.10;14.57;;;;;;;;;;5034716;28;20849;-78
2024/01/31 02:45:53;;;;;;;16.52;14.43;;;;;;;;;;5034703;28;20452;-78
2024/01/31 02:48:19;;;;;;;15.05;13.40;;;;;;;;;;5034480;28;20379;-79
2024/01/31 02:50:45;;;;;;;17.10;13.90;;;;;;;;;;5034815;28;20384;-79
2024/01/31 02:53:11;;;;;;;16.75;13.63;;;;;;;;;;5035089;28;20465;-79
2024/01/31 02:55:37;;;;;;;15.90;13.82;;;;;;;;;;5034967;28;20383;-78
2024/01/31 02:58:03;;;;;;;15.18;13.35;;;;;;;;;;5038032;28;20414;-79
2024/01/31 03:00:29;;;;;;;19.95;16.67;;;;;;;;;;5038692;28;20908;-79
2024/01/31 03:02:55;;;;;;;15.68;13.77;;;;;;;;;;5038145;28;20403;-78
2024/01/31 03:05:21;;;;;;;15.85;14.02;;;;;;;;;;5038287;28;20509;-78
2024/01/31 03:07:47;;;;;;;15.05;13.45;;;;;;;;;;5038185;28;20395;-78
2024/01/31 03:10:13;;;;;;;16.02;13.23;;;;;;;;;;5038483;28;20371;-78
2024/01/31 03:12:39;;;;;;;15.67;13.97;;;;;;;;;;5038530;28;20924;-79
2024/01/31 03:15:05;;;;;;;15.05;13.43;;;;;;;;;;5038154;28;20417;-79
2024/01/31 03:17:35;;;;;;;17.27;14.00;;;;;;;;;;5038442;28;20484;-78
2024/01/31 03:20:02;;;;;;;17.05;14.38;;;;;;;;;;5038294;28;20399;-78
2024/01/31 03:22:28;;;;;;;17.45;13.45;;;;;;;;;;5038192;28;20387;-78
2024/01/31 03:24:54;;;;;;;15.60;13.90;;;;;;;;;;5037727;28;20385;-79
2024/01/31 03:27:20;;;;;;;15.73;14.00;;;;;;;;;;5024189;28;20892;-79
2024/01/31 03:29:46;;;;;;;14.88;13.32;;;;;;;;;;5037790;28;20383;-79
2024/01/31 03:32:12;;;;;;;14.70;13.13;;;;;;;;;;5020054;28;20418;-79
2024/01/31 03:34:38;;;;;;;14.60;13.10;;;;;;;;;;5037662;28;20800;-78
2024/01/31 03:37:05;;;;;;;15.10;13.50;;;;;;;;;;5037433;28;20398;-78
2024/01/31 03:39:31;;;;;;;14.85;13.35;;;;;;;;;;5037518;28;20398;-79
2024/01/31 03:41:57;;;;;;;15.93;14.18;;;;;;;;;;5037540;28;20386;-79
2024/01/31 03:44:23;;;;;;;15.10;13.57;;;;;;;;;;5037414;28;20387;-79
2024/01/31 03:46:49;;;;;;;15.53;13.77;;;;;;;;;;5037409;28;20407;-78
2024/01/31 03:49:15;;;;;;;13.98;12.57;;;;;;;;;;5038430;28;20819;-79
2024/01/31 03:51:41;;;;;;;15.85;13.80;;;;;;;;;;5038200;28;20446;-78
2024/01/31 03:54:07;;;;;;;16.70;13.65;;;;;;;;;;5037519;28;20397;-78
2024/01/31 03:56:34;;;;;;;14.48;12.63;;;;;;;;;;5037023;28;20384;-78
2024/01/31 03:59:00;;;;;;;17.30;13.18;;;;;;;;;;5037866;28;20907;-79
2024/01/31 04:01:26;;;;;;;14.18;12.68;;;;;;;;;;5037749;28;20387;-79
2024/01/31 04:03:52;;;;;;;15.98;12.60;;;;;;;;;;5036938;28;20776;-78
2024/01/31 04:06:18;;;;;;;13.90;12.48;;;;;;;;;;5037082;28;20905;-79
2024/01/31 04:08:44;;;;;;;14.23;12.60;;;;;;;;;;5036458;28;20430;-78
2024/01/31 04:11:10;;;;;;;16.27;12.85;;;;;;;;;;5036928;28;20391;-78
2024/01/31 04:13:37;;;;;;;16.83;13.35;;;;;;;;;;5036874;28;20382;-78
2024/01/31 04:16:03;;;;;;;14.57;13.07;;;;;;;;;;5037416;28;20378;-78
2024/01/31 04:18:29;;;;;;;14.48;12.98;;;;;;;;;;5036960;28;20395;-78
2024/01/31 04:20:55;;;;;;;14.82;12.73;;;;;;;;;;5037346;28;20880;-78
2024/01/31 04:23:21;;;;;;;14.32;12.68;;;;;;;;;;5037533;28;20483;-78
2024/01/31 04:25:47;;;;;;;14.77;12.37;;;;;;;;;;5037487;28;20510;-78
2024/01/31 04:28:15;;;;;;;13.98;12.50;;;;;;;;;;5037047;28;20466;-79
2024/01/31 04:30:41;;;;;;;14.95;13.23;;;;;;;;;;5036793;28;20381;-78
2024/01/31 04:33:07;;;;;;;13.77;12.37;;;;;;;;;;5037059;28;20414;-79
2024/01/31 04:35:33;;;;;;;13.95;12.55;;;;;;;;;;5036536;28;20386;-78
2024/01/31 04:37:59;;;;;;;15.85;12.73;;;;;;;;;;5036840;28;20383;-79
2024/01/31 04:40:25;;;;;;;15.68;12.65;;;;;;;;;;5036839;28;20391;-79
2024/01/31 04:42:51;;;;;;;14.60;13.05;;;;;;;;;;5037119;28;20395;-78
2024/01/31 04:45:17;;;;;;;15.23;13.73;;;;;;;;;;5036434;28;20398;-79
2024/01/31 04:47:43;;;;;;;18.00;14.60;;;;;;;;;;5036307;28;20414;-78
2024/01/31 04:50:09;;;;;;;14.63;13.13;;;;;;;;;;5036241;28;20379;-79
2024/01/31 04:52:36;;;;;;;15.93;14.13;;;;;;;;;;5036029;28;21052;-79
2024/01/31 04:55:02;;;;;;;14.35;12.85;;;;;;;;;;5035890;28;20371;-79
2024/01/31 04:57:29;;;;;;;14.60;13.10;;;;;;;;;;5035876;28;20805;-78
2024/01/31 04:59:55;;;;;;;14.43;12.87;;;;;;;;;;5036540;28;20466;-79
2024/01/31 05:02:20;;;;;;;15.45;13.68;;;;;;;;;;5018425;28;20398;-79
2024/01/31 05:04:46;;;;;;;14.70;13.15;;;;;;;;;;5036270;28;20426;-78
2024/01/31 05:07:12;;;;;;;14.25;12.70;;;;;;;;;;5036609;28;20482;-78
2024/01/31 05:09:38;;;;;;;15.50;13.82;;;;;;;;;;5036632;28;20383;-79
2024/01/31 05:12:05;;;;;;;14.13;12.57;;;;;;;;;;5036614;28;20415;-78
2024/01/31 05:14:31;;;;;;;14.07;12.35;;;;;;;;;;5035652;28;20466;-78
2024/01/31 05:16:57;;;;;;;14.70;13.20;;;;;;;;;;5035552;28;20415;-78
2024/01/31 05:19:23;;;;;;;14.50;12.82;;;;;;;;;;5035286;28;20411;-79
2024/01/31 05:21:50;;;;;;;15.68;13.30;;;;;;;;;;5035908;28;20709;-78
2024/01/31 05:24:16;;;;;;;14.38;12.88;;;;;;;;;;5035806;28;20449;-79
2024/01/31 05:26:46;;;;;;;15.05;13.45;;;;;;;;;;5035418;28;20410;-78
2024/01/31 05:29:12;;;;;;;13.50;12.10;;;;;;;;;;5035705;28;20383;-78
2024/01/31 05:31:38;;;;;;;14.93;12.82;;;;;;;;;;5035698;28;20382;-78
2024/01/31 05:34:04;;;;;;;14.15;12.73;;;;;;;;;;5035639;28;20415;-78
2024/01/31 05:36:30;;;;;;;13.10;11.80;;;;;;;;;;5035293;28;20383;-79
2024/01/31 05:38:56;;;;;;;13.95;12.50;;;;;;;;;;5035284;28;20494;-79
2024/01/31 05:41:22;;;;;;;12.70;11.47;;;;;;;;;;5035858;28;20444;-77
2024/01/31 05:43:48;;;;;;;12.95;11.52;;;;;;;;;;5035418;28;20799;-79
2024/01/31 05:46:15;;;;;;;12.98;11.65;;;;;;;;;;5035262;28;20438;-78
2024/01/31 05:48:42;;;;;;;12.75;11.55;;;;;;;;;;5016577;28;20726;-78
2024/01/31 05:51:08;;;;;;;12.57;11.38;;;;;;;;;;5019623;28;20405;-78
2024/01/31 05:53:34;;;;;;;12.40;11.10;;;;;;;;;;5033281;28;20505;-78
2024/01/31 05:56:00;;;;;;;13.02;11.80;;;;;;;;;;5033145;28;20398;-78
2024/01/31 05:58:27;;;;;;;12.75;11.50;;;;;;;;;;5033173;28;20397;-78
2024/01/31 06:00:53;;;;;;;13.65;12.10;;;;;;;;;;5033153;28;20390;-78
2024/01/31 06:03:20;;;;;;;13.07;11.85;;;;;;;;;;5033011;28;20889;-78
2024/01/31 06:05:47;;;;;;;13.27;11.90;;;;;;;;;;5033214;28;20469;-78
2024/01/31 06:08:13;;;;;;;13.27;11.73;;;;;;;;;;5015794;28;20481;-78
2024/01/31 06:10:39;;;;;;;13.63;11.98;;;;;;;;;;5033313;28;20391;-78
2024/01/31 06:13:05;;;;;;;13.20;11.63;;;;;;;;;;5033771;28;20385;-78
2024/01/31 06:15:31;;;;;;;12.30;11.10;;;;;;;;;;5033113;28;20812;-78
2024/01/31 06:17:57;;;;;;;13.37;11.63;;;;;;;;;;5033367;28;20481;-78
2024/01/31 06:20:23;;;;;;;11.90;10.80;;;;;;;;;;5033865;28;20406;-78
2024/01/31 06:22:49;;;;;;;13.95;12.18;;;;;;;;;;5032966;28;20470;-78
2024/01/31 06:25:15;;;;;;;14.73;12.32;;;;;;;;;;5033687;28;20510;-78
2024/01/31 06:27:41;;;;;;;13.75;12.35;;;;;;;;;;5032969;28;20714;-78
2024/01/31 06:30:07;;;;;;;13.40;12.00;;;;;;;;;;5033240;28;20513;-78
2024/01/31 06:32:37;;;;;;;12.98;11.68;;;;;;;;;;5036772;28;20382;-78
2024/01/31 06:35:03;;;;;;;15.15;12.27;;;;;;;;;;5036949;28;20410;-78
2024/01/31 06:37:29;;;;;;;12.67;11.23;;;;;;;;;;5036608;28;20379;-78
2024/01/31 06:39:55;;;;;;;12.95;11.75;;;;;;;;;;5036463;28;20478;-78
2024/01/31 06:42:21;;;;;;;13.23;11.82;;;;;;;;;;5035773;28;20861;-78
2024/01/31 06:44:47;;;;;;;13.90;12.38;;;;;;;;;;5036491;28;20486;-78
2024/01/31 06:47:13;;;;;;;14.38;12.88;;;;;;;;;;5036018;28;20497;-78
2024/01/31 06:49:39;;;;;;;13.00;11.73;;;;;;;;;;5036257;28;20379;-78
2024/01/31 06:52:10;;;;;;;13.93;12.52;;;;;;;;;;5036368;28;20379;-78
2024/01/31 06:54:36;;;;;;;13.98;12.50;;;;;;;;;;5022588;28;20426;-78
2024/01/31 06:57:02;;;;;;;13.23;11.88;;;;;;;;;;5035915;28;20852;-78
2024/01/31 06:59:28;;;;;;;14.73;12.27;;;;;;;;;;5035931;28;20383;-78
2024/01/31 07:01:54;;;;;;;13.07;11.80;;;;;;;;;;5036230;28;20876;-78
2024/01/31 07:04:20;;;;;;;13.75;12.35;;;;;;;;;;5035727;28;20425;-78
2024/01/31 07:06:46;;;;;;;13.70;11.70;;;;;;;;;;5035507;28;20577;-78
2024/01/31 07:09:12;;;;;;;13.70;12.30;;;;;;;;;;5035716;28;20833;-78
2024/01/31 07:11:38;;;;;;;15.02;13.05;;;;;;;;;;5035703;28;20375;-77
2024/01/31 07:14:04;;;;;;;13.80;12.18;;;;;;;;;;5035931;28;20837;-78
2024/01/31 07:16:30;;;;;;;15.73;12.57;;;;;;;;;;5035863;28;20432;-78
2024/01/31 07:18:56;;;;;;;19.20;13.88;;;;;;;;;;5033242;28;20407;-78
2024/01/31 07:21:25;;;;;;;13.52;12.13;;;;;;;;;;5035375;28;20390;-78
2024/01/31 07:23:52;;;;;;;14.20;11.93;;;;;;;;;;5035691;28;20419;-78
2024/01/31 07:26:22;;;;;;;14.40;12.43;;;;;;;;;;5035939;28;20453;-78
2024/01/31 07:28:49;;;;;;;19.58;14.02;;;;;;;;;;5035428;28;20395;-78
2024/01/31 07:31:15;;;;;;;19.80;14.40;;;;;;;;;;5035570;28;20477;-78
2024/01/31 07:33:41;;;;;;;21.80;14.80;;;;;;;;;;5035902;28;20380;-78
2024/01/31 07:36:07;;;;;;;20.20;14.63;;;;;;;;;;5035539;28;20441;-78
2024/01/31 07:38:33;;;;;;;14.80;12.80;;;;;;;;;;5035066;28;20869;-78
2024/01/31 07:40:59;;;;;;;16.73;13.55;;;;;;;;;;5034503;28;20426;-78
2024/01/31 07:43:25;;;;;;;17.35;14.30;;;;;;;;;;5034554;28;20403;-78
2024/01/31 07:45:52;;;;;;;15.73;13.43;;;;;;;;;;5034973;28;20753;-79
2024/01/31 07:48:18;;;;;;;48.95;17.40;;;;;;;;;;5017385;28;20394;-78
2024/01/31 07:50:44;;;;;;;29.40;13.27;;;;;;;;;;5035219;28;20383;-78
2024/01/31 07:53:10;;;;;;;38.53;15.50;;;;;;;;;;5032473;28;20452;-78
2024/01/31 07:55:36;;;;;;;15.83;12.57;;;;;;;;;;5025165;28;20392;-78
2024/01/31 07:58:03;;;;;;;13.18;11.77;;;;;;;;;;5034801;28;20940;-78
2024/01/31 08:00:29;;;;;;;13.85;12.07;;;;;;;;;;5035258;28;20947;-79
2024/01/31 08:02:55;;;;;;;12.52;11.23;;;;;;;;;;5014985;28;20497;-78
2024/01/31 08:05:21;;;;;;;15.33;12.50;;;;;;;;;;5015230;28;20507;-78
2024/01/31 08:07:47;;;;;;;16.30;11.98;;;;;;;;;;5014901;28;20389;-78
2024/01/31 08:10:13;;;;;;;33.83;14.38;;;;;;;;;;5015350;28;20751;-78
2024/01/31 08:12:41;;;;;;;20.45;12.55;;;;;;;;;;5015377;28;20389;-78
2024/01/31 08:15:08;;;;;;;16.00;12.70;;;;;;;;;;5017634;28;20482;-78
2024/01/31 08:17:34;;;;;;;18.35;13.00;;;;;;;;;;5016662;28;20384;-79
2024/01/31 08:20:00;;;;;;;15.65;13.98;;;;;;;;;;5016426;28;20376;-79
2024/01/31 08:22:26;;;;;;;13.93;12.52;;;;;;;;;;5017340;28;20409;-79
2024/01/31 08:24:52;;;;;;;15.63;13.93;;;;;;;;;;5017862;28;20843;-79
2024/01/31 08:27:18;;;;;;;16.52;14.65;;;;;;;;;;5016183;28;20420;-78
2024/01/31 08:29:44;;;;;;;15.27;13.68;;;;;;;;;;5017387;28;20415;-79
2024/01/31 08:32:10;;;;;;;247.18;37.88;;;;;;;;;;5016663;28;20380;-79
2024/01/31 08:34:36;;;;;;;29.33;16.38;;;;;;;;;;5017491;28;20400;-78
2024/01/31 08:37:02;;;;;;;30.65;20.20;;;;;;;;;;5017151;28;20500;-79
2024/01/31 08:39:31;;;;;;;19.67;14.55;;;;;;;;;;5017803;28;20416;-79
2024/01/31 08:41:57;;;;;;;19.02;15.07;;;;;;;;;;5017912;28;20419;-79
2024/01/31 08:44:23;;;;;;;18.20;15.30;;;;;;;;;;5017705;28;20389;-78
2024/01/31 08:46:49;;;;;;;18.05;14.32;;;;;;;;;;5017423;28;20736;-79
2024/01/31 08:49:15;;;;;;;16.75;14.75;;;;;;;;;;5017787;28;20396;-79
2024/01/31 08:51:41;;;;;;;18.20;14.57;;;;;;;;;;5017077;28;20883;-79
2024/01/31 08:54:08;;;;;;;17.52;15.25;;;;;;;;;;5017534;28;20392;-80
2024/01/31 08:56:34;;;;;;;16.80;15.00;;;;;;;;;;5017230;28;20392;-80
2024/01/31 08:59:00;;;;;;;19.70;15.75;;;;;;;;;;5017446;28;20980;-78
2024/01/31 09:01:26;;;;;;;19.15;15.57;;;;;;;;;;5017359;28;20400;-79
2024/01/31 09:03:54;;;;;;;16.13;14.15;;;;;;;;;;5028772;28;20968;-79
2024/01/31 09:06:20;;;;;;;15.47;13.87;;;;;;;;;;5036796;28;20403;-79
2024/01/31 09:08:46;;;;;;;15.70;14.18;;;;;;;;;;5036988;28;20879;-79
2024/01/31 09:11:12;;;;;;;15.30;13.27;;;;;;;;;;5036888;28;20438;-79
2024/01/31 09:13:38;;;;;;;16.20;14.60;;;;;;;;;;5037586;28;20916;-79
2024/01/31 09:16:04;;;;;;;15.98;14.27;;;;;;;;;;5037249;28;20387;-79
2024/01/31 09:18:30;;;;;;;15.68;14.00;;;;;;;;;;5036541;28;20402;-79
2024/01/31 09:20:56;;;;;;;16.55;14.93;;;;;;;;;;5037490;28;20889;-79
2024/01/31 09:23:22;;;;;;;17.60;14.60;;;;;;;;;;5036916;28;20430;-79
2024/01/31 09:25:49;;;;;;;16.50;14.30;;;;;;;;;;5036738;28;20403;-80
2024/01/31 09:28:15;;;;;;;15.07;13.57;;;;;;;;;;5037125;28;20390;-79
2024/01/31 09:30:43;;;;;;;21.52;17.73;;;;;;;;;;5036905;28;20383;-78
2024/01/31 09:33:09;;;;;;;25.42;19.42;;;;;;;;;;5036991;28;20388;-80
2024/01/31 09:35:35;;;;;;;39.17;27.80;;;;;;;;;;5037118;28;20387;-80
2024/01/31 09:38:01;;;;;;;28.98;21.92;;;;;;;;;;5037291;28;20880;-79
2024/01/31 09:40:27;;;;;;;21.13;18.30;;;;;;;;;;5036727;28;20402;-80
2024/01/31 09:42:54;;;;;;;20.90;18.23;;;;;;;;;;5037603;28;20412;-79
2024/01/31 09:45:21;;;;;;;21.73;18.02;;;;;;;;;;5037049;28;20926;-79
2024/01/31 09:47:48;;;;;;;23.00;18.55;;;;;;;;;;5036958;28;20387;-79
2024/01/31 09:50:14;;;;;;;24.80;20.02;;;;;;;;;;5036949;28;20391;-80
2024/01/31 09:52:40;;;;;;;24.55;19.38;;;;;;;;;;5036974;28;20429;-80
2024/01/31 09:55:10;;;;;;;23.45;19.52;;;;;;;;;;5019416;28;20387;-79
2024/01/31 09:57:37;;;;;;;24.73;19.35;;;;;;;;;;5037341;28;20422;-80
2024/01/31 10:00:04;;;;;;;25.42;20.25;;;;;;;;;;5036449;28;20383;-79
2024/01/31 10:02:31;;;;;;;21.08;17.90;;;;;;;;;;5036398;28;20456;-80
2024/01/31 10:04:57;;;;;;;21.25;17.60;;;;;;;;;;5036846;28;20838;-80
2024/01/31 10:07:29;;;;;;;26.17;19.98;;;;;;;;;;5039973;28;20449;-79
2024/01/31 10:09:56;;;;;;;28.63;21.50;;;;;;;;;;5040441;28;20951;-79
2024/01/31 10:12:22;;;;;;;26.67;20.13;;;;;;;;;;5040678;28;20442;-79
2024/01/31 10:14:51;;;;;;;26.15;19.27;;;;;;;;;;5040724;28;20375;-80
2024/01/31 10:17:17;;;;;;;24.03;19.13;;;;;;;;;;5040132;28;20386;-80
2024/01/31 10:19:43;;;;;;;24.00;19.20;;;;;;;;;;5039833;28;20383;-79
2024/01/31 10:22:09;;;;;;;25.57;18.70;;;;;;;;;;5040613;28;20395;-79
2024/01/31 10:24:35;;;;;;;24.38;19.17;;;;;;;;;;5040239;28;20864;-80
2024/01/31 10:27:05;;;;;;;27.30;20.48;;;;;;;;;;5040024;28;20415;-79
2024/01/31 10:29:32;;;;;;;28.73;21.38;;;;;;;;;;5040498;28;20860;-79
2024/01/31 10:31:58;;;;;;;27.92;20.92;;;;;;;;;;5040385;28;20383;-79
2024/01/31 10:34:24;;;;;;;24.93;19.43;;;;;;;;;;5040001;28;20374;-78
2024/01/31 10:36:50;;;;;;;25.52;19.38;;;;;;;;;;5038578;28;20381;-78
2024/01/31 10:39:20;;;;;;;26.35;20.50;;;;;;;;;;5037699;28;20881;-77
2024/01/31 10:41:47;;;;;;;23.15;19.10;;;;;;;;;;5037585;28;20406;-79
2024/01/31 10:44:16;;;;;;;27.77;20.17;;;;;;;;;;5038398;28;20857;-78
2024/01/31 10:46:43;;;;;;;28.98;22.20;;;;;;;;;;5038128;28;20403;-77
2024/01/31 10:49:10;;;;;;;28.52;21.00;;;;;;;;;;5038115;28;20383;-78
2024/01/31 10:51:38;;;;;;;27.77;21.70;;;;;;;;;;5037770;28;20398;-77
2024/01/31 10:54:05;;;;;;;25.20;19.80;;;;;;;;;;5037835;28;20409;-78
2024/01/31 10:56:31;;;;;;;25.60;20.70;;;;;;;;;;5020790;28;20807;-78
2024/01/31 10:58:57;;;;;;;27.13;19.98;;;;;;;;;;5038257;28;20387;-78
2024/01/31 11:01:29;;;;;;;25.35;19.92;;;;;;;;;;5037746;28;20382;-78
2024/01/31 11:03:55;;;;;;;29.20;22.38;;;;;;;;;;5037734;28;20864;-78
2024/01/31 11:06:24;;;;;;;28.70;20.90;;;;;;;;;;5037443;28;20442;-77
2024/01/31 11:08:50;;;;;;;30.30;23.63;;;;;;;;;;5036493;28;20381;-77
2024/01/31 11:11:19;;;;;;;31.02;23.00;;;;;;;;;;5036409;28;20473;-80
2024/01/31 11:13:45;;;;;;;28.38;21.98;;;;;;;;;;5029650;28;21128;-79
2024/01/31 11:16:14;;;;;;;24.95;20.50;;;;;;;;;;5037257;28;20389;-78
2024/01/31 11:18:41;;;;;;;30.30;22.75;;;;;;;;;;5035790;28;20938;-79
2024/01/31 11:21:10;;;;;;;34.97;23.75;;;;;;;;;;5019194;28;20474;-78
2024/01/31 11:23:36;;;;;;;35.40;24.55;;;;;;;;;;5036413;28;20465;-78
2024/01/31 11:26:02;;;;;;;36.55;25.10;;;;;;;;;;5034468;28;20876;-77
2024/01/31 11:28:28;;;;;;;31.48;23.33;;;;;;;;;;5036103;28;20375;-78
2024/01/31 11:30:55;;;;;;;33.72;24.45;;;;;;;;;;5036790;28;20399;-78
2024/01/31 11:33:21;;;;;;;40.22;27.42;;;;;;;;;;5036604;28;20387;-78
2024/01/31 11:35:47;;;;;;;36.57;26.30;;;;;;;;;;5036469;28;20481;-77
2024/01/31 11:38:17;;;;;;;36.47;26.13;;;;;;;;;;5036210;28;20391;-78
2024/01/31 11:40:43;;;;;;;36.15;26.17;;;;;;;;;;5037496;28;20861;-79
2024/01/31 11:43:09;;;;;;;37.33;25.02;;;;;;;;;;5038108;28;20869;-79
2024/01/31 11:45:36;;;;;;;34.75;23.88;;;;;;;;;;5036164;28;20421;-79
2024/01/31 11:48:03;;;;;;;31.23;23.23;;;;;;;;;;5037257;28;20429;-78
2024/01/31 11:50:29;;;;;;;35.17;24.40;;;;;;;;;;5036973;28;20383;-78
2024/01/31 11:52:55;;;;;;;32.65;23.52;;;;;;;;;;5019360;28;20379;-78
2024/01/31 11:55:22;;;;;;;30.40;23.90;;;;;;;;;;5018059;28;20398;-79
2024/01/31 11:57:48;;;;;;;36.15;23.80;;;;;;;;;;5037209;28;20415;-79
2024/01/31 12:00:15;;;;;;;34.90;24.13;;;;;;;;;;5038537;28;20386;-79
2024/01/31 12:02:41;;;;;;;31.60;22.83;;;;;;;;;;5035204;28;20440;-77
2024/01/31 12:05:07;;;;;;;29.30;22.77;;;;;;;;;;5035305;28;20418;-79
2024/01/31 12:07:33;;;;;;;29.27;22.00;;;;;;;;;;5034930;28;20375;-78
2024/01/31 12:09:59;;;;;;;29.50;22.30;;;;;;;;;;5034668;28;20378;-78
2024/01/31 12:12:26;;;;;;;32.15;22.95;;;;;;;;;;5034387;28;20390;-78
2024/01/31 12:14:53;;;;;;;30.65;23.38;;;;;;;;;;5017069;28;20383;-78
2024/01/31 12:17:26;;;;;;;31.17;22.67;;;;;;;;;;5034971;28;20375;-79
2024/01/31 12:20:05;;;;;;;32.92;21.38;;;;;;;;;;5035244;28;20888;-79
2024/01/31 12:22:34;;;;;;;31.27;22.90;;;;;;;;;;5034300;28;20869;-78
2024/01/31 12:25:04;;;;;;;26.30;21.02;;;;;;;;;;5034037;28;20411;-78
2024/01/31 12:27:30;;;;;;;26.00;19.75;;;;;;;;;;5016573;28;20737;-78
2024/01/31 12:29:56;;;;;;;25.45;20.85;;;;;;;;;;5018664;28;20462;-79
2024/01/31 12:32:23;;;;;;;27.88;20.60;;;;;;;;;;5038429;28;20375;-79
2024/01/31 12:34:49;;;;;;;24.02;19.17;;;;;;;;;;5036699;28;20383;-78
2024/01/31 12:37:15;;;;;;;24.07;19.33;;;;;;;;;;5035796;28;20441;-78
2024/01/31 12:39:42;;;;;;;31.67;19.38;;;;;;;;;;5035583;28;20375;-78
2024/01/31 12:42:08;;;;;;;25.48;19.75;;;;;;;;;;5034297;28;20383;-78
2024/01/31 12:44:34;;;;;;;28.35;20.42;;;;;;;;;;5022509;28;20367;-79
2024/01/31 12:47:05;;;;;;;26.95;19.60;;;;;;;;;;5037120;28;20520;-78
2024/01/31 12:49:38;;;;;;;24.05;19.95;;;;;;;;;;5038472;28;20709;-79
2024/01/31 12:52:04;;;;;;;24.77;19.80;;;;;;;;;;5019358;28;20380;-79
2024/01/31 12:54:30;;;;;;;27.83;20.73;;;;;;;;;;5038280;28;20828;-79
2024/01/31 12:56:56;;;;;;;31.27;20.70;;;;;;;;;;5038698;28;20439;-79
2024/01/31 12:59:23;;;;;;;26.67;19.83;;;;;;;;;;5038390;28;20445;-79
2024/01/31 13:01:49;;;;;;;22.47;18.90;;;;;;;;;;5033928;28;20395;-78
2024/01/31 13:04:15;;;;;;;32.85;20.65;;;;;;;;;;5016873;28;20415;-78
2024/01/31 13:06:41;;;;;;;29.08;20.00;;;;;;;;;;5035552;28;20504;-79
2024/01/31 13:09:07;;;;;;;23.77;18.23;;;;;;;;;;5035808;28;20383;-78
2024/01/31 13:11:33;;;;;;;18.73;16.77;;;;;;;;;;5035446;28;20383;-78
2024/01/31 13:13:59;;;;;;;19.48;17.20;;;;;;;;;;5036005;28;20385;-79
2024/01/31 13:16:25;;;;;;;22.38;17.23;;;;;;;;;;5038236;28;20379;-79
2024/01/31 13:18:51;;;;;;;23.25;17.20;;;;;;;;;;5038309;28;20887;-79
2024/01/31 13:21:17;;;;;;;18.20;15.70;;;;;;;;;;5038251;28;20383;-79
2024/01/31 13:23:43;;;;;;;19.07;16.10;;;;;;;;;;5036076;28;20379;-79
2024/01/31 13:26:09;;;;;;;19.85;16.10;;;;;;;;;;5016936;28;20431;-79
2024/01/31 13:28:35;;;;;;;18.65;16.33;;;;;;;;;;5034861;28;20379;-78
2024/01/31 13:31:01;;;;;;;18.73;16.50;;;;;;;;;;5035859;28;20387;-77
2024/01/31 13:33:27;;;;;;;19.65;16.15;;;;;;;;;;5032629;28;20392;-77
2024/01/31 13:35:53;;;;;;;17.63;15.73;;;;;;;;;;5033238;28;20416;-77
2024/01/31 13:38:19;;;;;;;16.63;14.95;;;;;;;;;;5033205;28;20383;-77
2024/01/31 13:40:45;;;;;;;15.40;13.80;;;;;;;;;;5034487;28;20375;-79
2024/01/31 13:43:11;;;;;;;17.45;14.73;;;;;;;;;;5036612;28;20381;-79
2024/01/31 13:45:40;;;;;;;18.17;15.23;;;;;;;;;;5036165;28;20417;-78
2024/01/31 13:48:06;;;;;;;15.98;14.35;;;;;;;;;;5034826;28;20383;-78
2024/01/31 13:50:32;;;;;;;15.63;14.02;;;;;;;;;;5034468;28;20421;-80
2024/01/31 13:52:58;;;;;;;16.08;13.85;;;;;;;;;;5017173;28;20384;-78
2024/01/31 13:55:24;;;;;;;15.40;13.80;;;;;;;;;;5035175;28;20422;-78
2024/01/31 13:57:50;;;;;;;15.82;13.68;;;;;;;;;;5034447;28;20379;-78
2024/01/31 14:00:16;;;;;;;15.35;13.75;;;;;;;;;;5033662;28;20375;-79
2024/01/31 14:02:42;;;;;;;15.10;13.50;;;;;;;;;;5034213;28;20470;-79
2024/01/31 14:05:08;;;;;;;21.23;18.25;;;;;;;;;;5034771;28;20395;-79
2024/01/31 14:07:34;;;;;;;15.77;14.05;;;;;;;;;;5035136;28;20387;-79
2024/01/31 14:10:00;;;;;;;20.48;15.85;;;;;;;;;;5034458;28;20394;-79